Time;durP1;ratioP1;P1;durP2;ratioP2;P2;SDS_P1;SDS_P2;PMS_P1;PMS_P2;Temp;Humidity;BMP_temperature;BMP_pressure;BME280_temperature;BME280_humidity;BME280_pressure;Samples;Min_cycle;Max_cycle;Signal;HPM_P1;HPM_P2
2021/12/09 00:01:33;;;;;;;35.92;24.90;;;;;;;;;;143738;572;46021;-80
2021/12/09 00:04:06;;;;;;;31.48;22.95;;;;;;;;;;143736;574;47010;-79
2021/12/09 00:06:43;;;;;;;32.92;23.02;;;;;;;;;;143737;625;47022;-80
2021/12/09 00:09:16;;;;;;;48.30;32.25;;;;;;;;;;143737;582;46011;-80
2021/12/09 00:11:46;;;;;;;84.03;54.17;;;;;;;;;;143739;606;46020;-79
2021/12/09 00:14:27;;;;;;;83.05;56.30;;;;;;;;;;143740;572;46018;-80
2021/12/09 00:16:57;;;;;;;83.03;53.97;;;;;;;;;;143739;697;47023;-80
2021/12/09 00:19:24;;;;;;;80.47;50.53;;;;;;;;;;143738;580;47020;-79
2021/12/09 00:21:52;;;;;;;69.85;49.35;;;;;;;;;;143740;569;46020;-79
2021/12/09 00:24:18;;;;;;;70.93;47.22;;;;;;;;;;143741;613;47018;-80
2021/12/09 00:26:46;;;;;;;72.20;50.15;;;;;;;;;;143740;594;46022;-80
2021/12/09 00:29:15;;;;;;;72.82;47.33;;;;;;;;;;143739;576;46010;-80
2021/12/09 00:31:45;;;;;;;64.85;43.75;;;;;;;;;;143739;590;47021;-79
2021/12/09 00:34:15;;;;;;;77.03;46.80;;;;;;;;;;143739;571;46010;-80
2021/12/09 00:37:17;;;;;;;65.47;44.80;;;;;;;;;;143740;582;46022;-80
2021/12/09 00:39:41;;;;;;;55.72;39.15;;;;;;;;;;143736;574;46013;-80
2021/12/09 00:42:20;;;;;;;58.00;36.53;;;;;;;;;;143740;591;47020;-79
2021/12/09 00:44:49;;;;;;;43.53;31.30;;;;;;;;;;143741;591;46010;-79
2021/12/09 00:47:16;;;;;;;41.47;28.05;;;;;;;;;;143740;576;47023;-79
2021/12/09 00:49:43;;;;;;;40.65;25.45;;;;;;;;;;143737;588;46915;-79
2021/12/09 00:52:11;;;;;;;32.97;21.87;;;;;;;;;;143740;584;47020;-80
2021/12/09 00:54:42;;;;;;;28.42;18.67;;;;;;;;;;143742;565;46020;-81
2021/12/09 00:57:10;;;;;;;24.67;18.83;;;;;;;;;;143739;585;47022;-79
2021/12/09 00:59:37;;;;;;;26.25;19.62;;;;;;;;;;143738;573;47021;-81
2021/12/09 01:02:09;;;;;;;20.42;14.95;;;;;;;;;;143739;582;46029;-79
2021/12/09 01:04:40;;;;;;;27.30;18.45;;;;;;;;;;143739;618;46020;-79
2021/12/09 01:07:08;;;;;;;25.77;19.37;;;;;;;;;;143738;621;47022;-80
2021/12/09 01:09:35;;;;;;;27.80;19.25;;;;;;;;;;143738;610;46010;-79
2021/12/09 01:12:07;;;;;;;33.05;21.90;;;;;;;;;;143740;591;47020;-79
2021/12/09 01:14:37;;;;;;;31.80;21.15;;;;;;;;;;143739;648;46011;-79
2021/12/09 01:17:06;;;;;;;28.05;20.95;;;;;;;;;;143741;573;46023;-79
2021/12/09 01:19:33;;;;;;;32.67;22.08;;;;;;;;;;143738;634;46020;-80
2021/12/09 01:22:01;;;;;;;23.85;16.00;;;;;;;;;;143738;642;48020;-79
2021/12/09 01:24:33;;;;;;;28.17;16.83;;;;;;;;;;143739;592;46021;-79
2021/12/09 01:27:00;;;;;;;23.05;16.80;;;;;;;;;;143738;569;47022;-80
2021/12/09 01:29:40;;;;;;;28.05;18.17;;;;;;;;;;143738;746;46010;-80
2021/12/09 01:32:16;;;;;;;24.77;17.52;;;;;;;;;;143740;577;46047;-80
2021/12/09 01:34:48;;;;;;;23.27;16.73;;;;;;;;;;143742;584;46020;-79
2021/12/09 01:37:15;;;;;;;23.45;16.48;;;;;;;;;;143739;703;46022;-80
2021/12/09 01:39:43;;;;;;;27.37;15.68;;;;;;;;;;143737;591;46010;-81
2021/12/09 01:42:12;;;;;;;22.87;15.43;;;;;;;;;;143740;569;46012;-79
2021/12/09 01:44:40;;;;;;;21.00;13.50;;;;;;;;;;143741;626;46010;-80
2021/12/09 01:47:07;;;;;;;21.05;13.88;;;;;;;;;;143739;569;47023;-80
2021/12/09 01:49:34;;;;;;;22.75;14.70;;;;;;;;;;143739;658;46915;-80
2021/12/09 01:52:01;;;;;;;23.52;14.15;;;;;;;;;;143740;580;46020;-81
2021/12/09 01:54:28;;;;;;;18.48;11.70;;;;;;;;;;143735;589;48010;-80
2021/12/09 01:56:55;;;;;;;21.50;11.95;;;;;;;;;;143739;588;47022;-80
2021/12/09 01:59:22;;;;;;;18.48;11.32;;;;;;;;;;143738;598;46011;-79
2021/12/09 02:01:51;;;;;;;19.87;12.82;;;;;;;;;;143742;583;46021;-81
2021/12/09 02:04:18;;;;;;;13.77;10.82;;;;;;;;;;143740;577;46010;-79
2021/12/09 02:06:45;;;;;;;12.98;8.52;;;;;;;;;;143739;627;47022;-80
2021/12/09 02:09:18;;;;;;;17.77;11.02;;;;;;;;;;143738;566;46012;-80
2021/12/09 02:11:46;;;;;;;17.87;10.82;;;;;;;;;;143738;575;47020;-80
2021/12/09 02:14:13;;;;;;;15.98;10.95;;;;;;;;;;143740;587;46010;-80
2021/12/09 02:16:41;;;;;;;14.00;9.68;;;;;;;;;;143740;735;47023;-80
2021/12/09 02:19:12;;;;;;;11.85;7.43;;;;;;;;;;143739;587;46010;-79
2021/12/09 02:21:43;;;;;;;15.35;7.50;;;;;;;;;;143742;564;46020;-80
2021/12/09 02:24:14;;;;;;;10.18;7.57;;;;;;;;;;143742;578;46010;-79
2021/12/09 02:26:47;;;;;;;12.98;5.80;;;;;;;;;;143741;566;46022;-80
2021/12/09 02:29:15;;;;;;;7.28;5.05;;;;;;;;;;143741;571;46010;-81
2021/12/09 02:31:44;;;;;;;15.65;7.18;;;;;;;;;;143746;587;46021;-80
2021/12/09 02:34:12;;;;;;;12.05;6.12;;;;;;;;;;143741;617;47018;-80
2021/12/09 02:36:40;;;;;;;10.88;6.12;;;;;;;;;;143741;593;47022;-80
2021/12/09 02:39:12;;;;;;;9.38;6.20;;;;;;;;;;143738;609;46010;-80
2021/12/09 02:41:39;;;;;;;8.43;6.53;;;;;;;;;;143739;603;46040;-79
2021/12/09 02:44:11;;;;;;;17.87;11.68;;;;;;;;;;143743;616;46010;-79
2021/12/09 02:46:38;;;;;;;20.37;12.73;;;;;;;;;;143741;582;46052;-80
2021/12/09 02:49:18;;;;;;;20.27;13.30;;;;;;;;;;143742;565;45915;-80
2021/12/09 02:51:46;;;;;;;17.20;11.25;;;;;;;;;;143741;585;47020;-79
2021/12/09 02:54:19;;;;;;;18.65;11.95;;;;;;;;;;143739;590;46010;-79
2021/12/09 02:56:50;;;;;;;20.75;11.75;;;;;;;;;;143739;570;47022;-80
2021/12/09 02:59:17;;;;;;;18.60;11.40;;;;;;;;;;143739;574;46010;-80
2021/12/09 03:02:05;;;;;;;16.10;11.20;;;;;;;;;;143740;637;46021;-79
2021/12/09 03:04:52;;;;;;;27.10;16.85;;;;;;;;;;143741;641;46010;-80
2021/12/09 03:07:30;;;;;;;15.32;10.20;;;;;;;;;;143740;590;47022;-80
2021/12/09 03:10:22;;;;;;;13.02;9.68;;;;;;;;;;143739;589;46010;-79
2021/12/09 03:12:52;;;;;;;12.37;9.23;;;;;;;;;;143739;687;48020;-80
2021/12/09 03:15:38;;;;;;;223.38;122.97;;;;;;;;;;143743;619;46021;-81
2021/12/09 03:18:09;;;;;;;161.30;99.30;;;;;;;;;;143743;569;46020;-81
2021/12/09 03:20:36;;;;;;;85.03;51.37;;;;;;;;;;143739;585;46010;-80
2021/12/09 03:23:03;;;;;;;93.55;56.05;;;;;;;;;;143741;658;48021;-79
2021/12/09 03:25:30;;;;;;;41.83;29.35;;;;;;;;;;143741;591;46010;-79
2021/12/09 03:27:57;;;;;;;30.48;20.23;;;;;;;;;;143740;605;47022;-79
2021/12/09 03:30:24;;;;;;;24.42;16.42;;;;;;;;;;143738;595;46011;-79
2021/12/09 03:32:52;;;;;;;34.58;23.12;;;;;;;;;;143741;665;47020;-79
2021/12/09 03:35:19;;;;;;;18.23;12.57;;;;;;;;;;143741;571;46010;-79
2021/12/09 03:37:49;;;;;;;38.47;29.08;;;;;;;;;;143740;589;47021;-79
2021/12/09 03:40:16;;;;;;;23.55;20.70;;;;;;;;;;143741;565;46010;-80
2021/12/09 03:42:44;;;;;;;27.35;19.45;;;;;;;;;;143742;576;47020;-79
2021/12/09 03:45:11;;;;;;;20.95;13.02;;;;;;;;;;143741;671;46018;-79
2021/12/09 03:47:38;;;;;;;15.25;10.65;;;;;;;;;;143742;632;47022;-79
2021/12/09 03:50:09;;;;;;;18.60;8.30;;;;;;;;;;143738;677;46010;-79
2021/12/09 03:52:40;;;;;;;93.30;71.05;;;;;;;;;;143742;681;46021;-80
2021/12/09 03:55:13;;;;;;;31.62;22.83;;;;;;;;;;143742;591;46018;-79
2021/12/09 03:57:44;;;;;;;32.50;21.52;;;;;;;;;;143739;620;47022;-79
2021/12/09 04:00:16;;;;;;;30.73;23.98;;;;;;;;;;143740;590;46021;-79
2021/12/09 04:02:43;;;;;;;25.88;17.90;;;;;;;;;;143743;616;46020;-79
2021/12/09 04:05:13;;;;;;;22.92;15.63;;;;;;;;;;143740;584;46020;-79
2021/12/09 04:07:40;;;;;;;27.80;15.52;;;;;;;;;;143740;585;47023;-79
2021/12/09 04:10:08;;;;;;;23.70;18.40;;;;;;;;;;143739;571;46010;-80
2021/12/09 04:12:34;;;;;;;18.75;14.80;;;;;;;;;;143741;569;46020;-80
2021/12/09 04:15:02;;;;;;;22.42;14.90;;;;;;;;;;143744;595;46010;-79
2021/12/09 04:17:30;;;;;;;20.10;13.88;;;;;;;;;;143741;569;46014;-79
2021/12/09 04:19:58;;;;;;;28.25;13.02;;;;;;;;;;143741;597;46035;-79
2021/12/09 04:22:24;;;;;;;22.98;15.18;;;;;;;;;;143742;585;46021;-79
2021/12/09 04:24:53;;;;;;;21.33;15.90;;;;;;;;;;143741;614;46010;-80
2021/12/09 04:27:21;;;;;;;20.08;13.57;;;;;;;;;;143743;573;47020;-80
2021/12/09 04:29:48;;;;;;;22.77;15.00;;;;;;;;;;143738;593;47010;-79
2021/12/09 04:32:15;;;;;;;29.17;18.70;;;;;;;;;;143741;583;47020;-80
2021/12/09 04:34:50;;;;;;;29.25;17.77;;;;;;;;;;143743;577;46018;-79
2021/12/09 04:37:20;;;;;;;24.08;15.80;;;;;;;;;;143740;599;47022;-79
2021/12/09 04:39:56;;;;;;;22.90;15.93;;;;;;;;;;143742;569;46048;-79
2021/12/09 04:42:24;;;;;;;29.85;17.62;;;;;;;;;;143742;566;46020;-79
2021/12/09 04:44:50;;;;;;;31.83;17.85;;;;;;;;;;143740;610;47010;-80
2021/12/09 04:47:17;;;;;;;40.33;18.70;;;;;;;;;;143742;604;47020;-80
2021/12/09 04:49:45;;;;;;;38.63;22.85;;;;;;;;;;143741;577;46010;-79
2021/12/09 04:52:12;;;;;;;28.67;19.42;;;;;;;;;;143740;611;47021;-80
2021/12/09 04:54:41;;;;;;;36.63;18.05;;;;;;;;;;143741;569;46044;-79
2021/12/09 04:57:10;;;;;;;21.95;14.27;;;;;;;;;;143739;597;47022;-79
2021/12/09 04:59:37;;;;;;;26.52;15.50;;;;;;;;;;143739;718;46010;-80
2021/12/09 05:02:07;;;;;;;26.58;15.18;;;;;;;;;;143743;565;46020;-80
2021/12/09 05:04:34;;;;;;;21.42;11.88;;;;;;;;;;143741;569;46010;-79
2021/12/09 05:07:01;;;;;;;19.12;11.02;;;;;;;;;;143738;559;47021;-79
2021/12/09 05:09:29;;;;;;;26.15;11.10;;;;;;;;;;143738;613;46012;-79
2021/12/09 05:11:56;;;;;;;23.20;12.45;;;;;;;;;;143741;607;47020;-79
2021/12/09 05:14:24;;;;;;;19.75;11.75;;;;;;;;;;143741;592;46010;-79
2021/12/09 05:16:53;;;;;;;20.05;12.02;;;;;;;;;;143741;690;47020;-80
2021/12/09 05:19:20;;;;;;;25.77;12.27;;;;;;;;;;143739;612;47020;-79
2021/12/09 05:21:52;;;;;;;24.73;11.88;;;;;;;;;;143742;571;46021;-79
2021/12/09 05:24:20;;;;;;;28.55;15.43;;;;;;;;;;143741;582;46020;-79
2021/12/09 05:26:53;;;;;;;45.95;27.10;;;;;;;;;;143741;616;47020;-79
2021/12/09 05:29:22;;;;;;;38.60;24.67;;;;;;;;;;143741;651;46010;-79
2021/12/09 05:32:11;;;;;;;29.87;16.65;;;;;;;;;;143741;579;47020;-79
2021/12/09 05:34:48;;;;;;;32.17;14.35;;;;;;;;;;143741;602;46010;-79
2021/12/09 05:37:20;;;;;;;23.62;13.70;;;;;;;;;;143740;587;47023;-79
2021/12/09 05:39:48;;;;;;;35.08;13.32;;;;;;;;;;143737;571;46012;-80
2021/12/09 05:42:17;;;;;;;28.08;10.32;;;;;;;;;;143742;588;46020;-78
2021/12/09 05:44:47;;;;;;;28.73;11.30;;;;;;;;;;143741;586;46010;-79
2021/12/09 05:47:18;;;;;;;27.62;11.27;;;;;;;;;;143742;567;46048;-78
2021/12/09 05:49:53;;;;;;;26.35;16.70;;;;;;;;;;143742;672;47021;-78
2021/12/09 05:52:20;;;;;;;39.88;18.17;;;;;;;;;;143749;587;46021;-79
2021/12/09 05:54:48;;;;;;;25.42;17.85;;;;;;;;;;143751;598;45020;-78
2021/12/09 05:57:15;;;;;;;29.90;17.27;;;;;;;;;;143742;602;46022;-78
2021/12/09 05:59:43;;;;;;;27.77;16.45;;;;;;;;;;143749;585;45917;-79
2021/12/09 06:02:14;;;;;;;26.48;16.00;;;;;;;;;;143748;589;46020;-78
2021/12/09 06:04:42;;;;;;;42.13;18.15;;;;;;;;;;143745;570;46019;-79
2021/12/09 06:07:12;;;;;;;32.40;17.45;;;;;;;;;;143741;611;47023;-79
2021/12/09 06:09:41;;;;;;;32.35;18.10;;;;;;;;;;143748;570;45917;-78
2021/12/09 06:12:09;;;;;;;29.73;17.58;;;;;;;;;;143742;663;47020;-78
2021/12/09 06:14:37;;;;;;;32.25;17.73;;;;;;;;;;143750;574;45043;-78
2021/12/09 06:17:04;;;;;;;27.77;15.20;;;;;;;;;;143749;701;45022;-78
2021/12/09 06:19:36;;;;;;;31.62;17.60;;;;;;;;;;143749;718;45021;-78
2021/12/09 06:22:04;;;;;;;26.92;13.52;;;;;;;;;;143743;613;47021;-78
2021/12/09 06:24:34;;;;;;;29.95;16.87;;;;;;;;;;143749;572;45044;-77
2021/12/09 06:27:03;;;;;;;27.98;15.45;;;;;;;;;;143744;581;47020;-78
2021/12/09 06:29:32;;;;;;;27.95;14.10;;;;;;;;;;143748;580;46909;-79
2021/12/09 06:32:01;;;;;;;31.85;11.48;;;;;;;;;;143749;653;46020;-79
2021/12/09 06:34:29;;;;;;;23.58;10.77;;;;;;;;;;143752;650;45020;-79
2021/12/09 06:36:57;;;;;;;34.25;14.20;;;;;;;;;;143748;582;47023;-79
2021/12/09 06:39:24;;;;;;;27.83;10.45;;;;;;;;;;143748;569;45020;-79
2021/12/09 06:41:51;;;;;;;22.42;10.88;;;;;;;;;;143747;605;47020;-79
2021/12/09 06:44:18;;;;;;;26.98;12.90;;;;;;;;;;143751;736;46021;-78
2021/12/09 06:46:46;;;;;;;32.15;12.82;;;;;;;;;;143744;587;47022;-78
2021/12/09 06:49:12;;;;;;;41.10;13.82;;;;;;;;;;143744;596;45917;-79
2021/12/09 06:51:40;;;;;;;34.63;15.38;;;;;;;;;;143740;575;47021;-78
2021/12/09 06:54:09;;;;;;;31.65;16.15;;;;;;;;;;143740;581;46018;-80
2021/12/09 06:57:06;;;;;;;;;;;;;;;;;;;;;
2021/12/09 06:59:33;;;;;;;29.95;15.88;;;;;;;;;;143738;742;46010;-78
2021/12/09 07:02:00;;;;;;;29.12;15.82;;;;;;;;;;143740;583;47020;-79
2021/12/09 07:04:28;;;;;;;23.75;13.77;;;;;;;;;;143741;586;46011;-79
2021/12/09 07:06:55;;;;;;;42.30;14.63;;;;;;;;;;143738;581;47023;-80
2021/12/09 07:09:27;;;;;;;29.58;16.87;;;;;;;;;;143735;581;46010;-78
2021/12/09 07:11:54;;;;;;;34.33;16.12;;;;;;;;;;143739;609;47020;-79
2021/12/09 07:14:39;;;;;;;30.60;14.57;;;;;;;;;;143738;596;46010;-79
2021/12/09 07:17:06;;;;;;;34.30;15.57;;;;;;;;;;143739;598;46052;-77
2021/12/09 07:19:42;;;;;;;29.55;16.85;;;;;;;;;;143735;586;46010;-78
2021/12/09 07:22:25;;;;;;;34.97;18.17;;;;;;;;;;143740;600;47020;-78
2021/12/09 07:24:54;;;;;;;28.00;20.13;;;;;;;;;;143739;597;46010;-78
2021/12/09 07:27:24;;;;;;;34.58;22.15;;;;;;;;;;143740;601;47020;-78
2021/12/09 07:29:50;;;;;;;33.03;22.50;;;;;;;;;;143739;583;46010;-78
2021/12/09 07:32:17;;;;;;;41.03;25.48;;;;;;;;;;143740;710;46020;-77
2021/12/09 07:34:44;;;;;;;35.40;24.23;;;;;;;;;;143739;618;46010;-78
2021/12/09 07:37:11;;;;;;;39.80;24.48;;;;;;;;;;143736;587;47023;-78
2021/12/09 07:39:40;;;;;;;40.88;26.65;;;;;;;;;;143739;597;45917;-78
2021/12/09 07:42:09;;;;;;;38.63;23.55;;;;;;;;;;143739;622;47020;-78
2021/12/09 07:44:41;;;;;;;29.48;22.00;;;;;;;;;;143738;648;46010;-78
2021/12/09 07:47:10;;;;;;;29.85;20.80;;;;;;;;;;143740;642;46022;-78
2021/12/09 07:49:40;;;;;;;29.25;20.80;;;;;;;;;;143738;577;46010;-78
2021/12/09 07:52:14;;;;;;;28.30;19.37;;;;;;;;;;143739;570;47021;-79
2021/12/09 07:54:41;;;;;;;28.80;18.10;;;;;;;;;;143739;609;46010;-78
2021/12/09 07:57:08;;;;;;;29.10;16.83;;;;;;;;;;143740;598;46022;-79
2021/12/09 07:59:44;;;;;;;27.75;12.63;;;;;;;;;;143737;581;46917;-79
2021/12/09 08:02:13;;;;;;;28.12;16.05;;;;;;;;;;143740;571;47020;-79
2021/12/09 08:04:56;;;;;;;33.33;13.60;;;;;;;;;;143743;587;46021;-80
2021/12/09 08:07:35;;;;;;;23.15;15.02;;;;;;;;;;143739;623;47023;-78
2021/12/09 08:10:09;;;;;;;20.75;14.68;;;;;;;;;;143737;599;47020;-79
2021/12/09 08:12:42;;;;;;;19.87;11.18;;;;;;;;;;143739;579;47021;-78
2021/12/09 08:15:17;;;;;;;16.67;11.50;;;;;;;;;;143741;611;46010;-81
2021/12/09 08:17:59;;;;;;;17.23;12.07;;;;;;;;;;143737;566;46022;-79
2021/12/09 08:20:27;;;;;;;16.85;11.73;;;;;;;;;;143739;581;46021;-79
2021/12/09 08:23:03;;;;;;;10.77;7.45;;;;;;;;;;143741;612;46020;-79
2021/12/09 08:25:34;;;;;;;20.20;10.00;;;;;;;;;;143739;598;46010;-79
2021/12/09 08:28:01;;;;;;;19.35;11.27;;;;;;;;;;143738;626;47022;-78
2021/12/09 08:30:29;;;;;;;16.00;10.27;;;;;;;;;;143737;615;46010;-79
2021/12/09 08:32:56;;;;;;;16.30;10.27;;;;;;;;;;143740;642;46020;-77
2021/12/09 08:35:24;;;;;;;21.50;11.60;;;;;;;;;;143740;595;46011;-77
2021/12/09 08:37:56;;;;;;;30.50;13.68;;;;;;;;;;143736;569;47023;-77
2021/12/09 08:40:24;;;;;;;26.37;12.80;;;;;;;;;;143737;563;46010;-77
2021/12/09 08:42:51;;;;;;;24.50;14.52;;;;;;;;;;143738;569;46021;-78
2021/12/09 08:45:21;;;;;;;23.73;15.30;;;;;;;;;;143740;639;46018;-78
2021/12/09 08:47:50;;;;;;;29.73;15.75;;;;;;;;;;143741;570;46022;-77
2021/12/09 08:50:21;;;;;;;28.55;17.12;;;;;;;;;;143736;569;46917;-77
2021/12/09 08:52:55;;;;;;;39.80;19.45;;;;;;;;;;143737;564;47020;-78
2021/12/09 08:55:24;;;;;;;35.20;17.98;;;;;;;;;;143738;632;46010;-78
2021/12/09 08:57:58;;;;;;;32.50;19.40;;;;;;;;;;143738;605;47022;-78
2021/12/09 09:00:26;;;;;;;26.55;16.83;;;;;;;;;;143739;571;46010;-80
2021/12/09 09:03:05;;;;;;;24.77;17.27;;;;;;;;;;143741;570;46022;-79
2021/12/09 09:05:54;;;;;;;31.25;15.90;;;;;;;;;;143745;582;45019;-78
2021/12/09 09:08:22;;;;;;;24.42;13.93;;;;;;;;;;143742;662;46020;-77
2021/12/09 09:10:52;;;;;;;19.35;10.68;;;;;;;;;;143739;576;45917;-78
2021/12/09 09:13:23;;;;;;;21.62;11.38;;;;;;;;;;143738;685;47021;-77
2021/12/09 09:15:51;;;;;;;18.48;10.32;;;;;;;;;;143739;768;47018;-77
2021/12/09 09:18:22;;;;;;;20.10;15.10;;;;;;;;;;143738;623;47021;-77
2021/12/09 09:20:49;;;;;;;22.27;13.60;;;;;;;;;;143740;876;46020;-78
2021/12/09 09:23:20;;;;;;;27.90;18.40;;;;;;;;;;143741;852;46020;-78
2021/12/09 09:25:50;;;;;;;25.13;19.63;;;;;;;;;;143739;565;46010;-77
2021/12/09 09:28:18;;;;;;;30.95;18.80;;;;;;;;;;143737;564;47023;-78
2021/12/09 09:30:53;;;;;;;18.90;14.70;;;;;;;;;;143736;570;46010;-78
2021/12/09 09:33:21;;;;;;;19.27;9.30;;;;;;;;;;143740;770;47020;-77
2021/12/09 09:35:51;;;;;;;34.05;26.10;;;;;;;;;;143739;626;46010;-79
2021/12/09 09:38:19;;;;;;;18.00;9.38;;;;;;;;;;143739;587;47020;-77
2021/12/09 09:41:06;;;;;;;8.85;5.43;;;;;;;;;;143737;586;46010;-77
2021/12/09 09:46:39;;;;;;;9.95;5.60;;;;;;;;;;143740;598;47018;-78
2021/12/09 09:49:08;;;;;;;10.70;5.33;;;;;;;;;;143741;622;47022;-77
2021/12/09 09:51:43;;;;;;;8.18;4.90;;;;;;;;;;143745;585;45916;-77
2021/12/09 09:54:10;;;;;;;8.57;4.45;;;;;;;;;;143747;592;46020;-79
2021/12/09 09:56:41;;;;;;;8.73;5.30;;;;;;;;;;143748;570;46019;-78
2021/12/09 09:59:10;;;;;;;6.75;4.47;;;;;;;;;;143746;659;47023;-78
2021/12/09 10:01:39;;;;;;;5.75;3.50;;;;;;;;;;143746;599;46915;-78
2021/12/09 10:04:14;;;;;;;5.80;2.83;;;;;;;;;;143747;601;46021;-78
2021/12/09 10:06:44;;;;;;;7.75;3.22;;;;;;;;;;143740;580;46012;-78
2021/12/09 10:09:15;;;;;;;6.90;3.67;;;;;;;;;;143746;594;47022;-80
2021/12/09 10:11:55;;;;;;;6.03;2.87;;;;;;;;;;143748;620;45915;-79
2021/12/09 10:14:33;;;;;;;10.52;3.62;;;;;;;;;;143745;570;47020;-77
2021/12/09 10:17:14;;;;;;;4.82;2.30;;;;;;;;;;143750;607;45020;-77
2021/12/09 10:20:05;;;;;;;5.40;2.70;;;;;;;;;;143745;573;47022;-79
2021/12/09 10:22:34;;;;;;;4.95;2.53;;;;;;;;;;143747;564;46020;-80
2021/12/09 10:25:19;;;;;;;3.97;2.28;;;;;;;;;;143746;618;46020;-78
2021/12/09 10:27:58;;;;;;;9.65;2.97;;;;;;;;;;143747;610;46018;-79
2021/12/09 10:30:25;;;;;;;3.95;2.75;;;;;;;;;;143746;611;47020;-78
2021/12/09 10:33:00;;;;;;;10.82;4.80;;;;;;;;;;143738;588;46012;-77
2021/12/09 10:35:30;;;;;;;4.68;2.37;;;;;;;;;;143747;575;45021;-78
2021/12/09 10:38:04;;;;;;;10.02;2.40;;;;;;;;;;143747;574;46020;-78
2021/12/09 10:40:44;;;;;;;5.37;2.55;;;;;;;;;;143744;586;46022;-78
2021/12/09 10:43:29;;;;;;;7.82;2.12;;;;;;;;;;143746;579;46020;-77
2021/12/09 10:46:01;;;;;;;3.05;1.90;;;;;;;;;;143742;565;46020;-77
2021/12/09 10:48:45;;;;;;;8.60;2.20;;;;;;;;;;143748;574;46019;-78
2021/12/09 10:51:26;;;;;;;9.70;2.90;;;;;;;;;;143755;593;46023;-78
2021/12/09 10:53:58;;;;;;;10.27;2.15;;;;;;;;;;143753;595;46029;-78
2021/12/09 10:56:30;;;;;;;8.10;2.25;;;;;;;;;;143754;635;46021;-78
2021/12/09 10:58:58;;;;;;;8.65;2.30;;;;;;;;;;143758;731;45021;-78
2021/12/09 11:01:26;;;;;;;9.05;2.10;;;;;;;;;;143754;584;46022;-78
2021/12/09 11:04:09;;;;;;;6.22;2.62;;;;;;;;;;143755;620;45916;-79
2021/12/09 11:06:39;;;;;;;9.38;2.45;;;;;;;;;;143754;586;46020;-77
2021/12/09 11:09:08;;;;;;;7.45;2.67;;;;;;;;;;143755;601;45020;-78
2021/12/09 11:11:42;;;;;;;4.93;2.22;;;;;;;;;;143755;637;46022;-79
2021/12/09 11:14:17;;;;;;;7.82;2.83;;;;;;;;;;143752;608;45916;-79
2021/12/09 11:17:18;;;;;;;7.53;2.47;;;;;;;;;;143755;629;46020;-78
2021/12/09 11:19:48;;;;;;;6.15;2.58;;;;;;;;;;143756;625;46018;-78
2021/12/09 11:22:20;;;;;;;6.03;2.90;;;;;;;;;;143754;600;46022;-77
2021/12/09 11:24:58;;;;;;;7.00;3.55;;;;;;;;;;143750;595;45916;-78
2021/12/09 11:27:36;;;;;;;11.12;2.58;;;;;;;;;;143754;570;46021;-77
2021/12/09 11:30:13;;;;;;;5.75;3.03;;;;;;;;;;143757;576;45020;-80
2021/12/09 11:33:02;;;;;;;6.30;2.28;;;;;;;;;;143753;583;46022;-79
2021/12/09 11:35:40;;;;;;;7.82;3.03;;;;;;;;;;143748;639;45918;-79
2021/12/09 11:38:30;;;;;;;11.43;2.95;;;;;;;;;;143757;605;45020;-78
2021/12/09 11:41:19;;;;;;;5.68;2.37;;;;;;;;;;143757;576;46021;-79
2021/12/09 11:43:50;;;;;;;8.75;2.58;;;;;;;;;;143756;585;45048;-78
2021/12/09 11:46:20;;;;;;;8.35;2.85;;;;;;;;;;143751;624;45918;-79
2021/12/09 11:49:01;;;;;;;6.85;3.40;;;;;;;;;;143748;566;46021;-79
2021/12/09 11:51:42;;;;;;;7.72;3.08;;;;;;;;;;143750;574;46020;-80
2021/12/09 11:54:16;;;;;;;6.10;2.00;;;;;;;;;;143745;596;47022;-80
2021/12/09 11:57:10;;;;;;;7.10;1.95;;;;;;;;;;143738;564;46048;-79
2021/12/09 12:06:46;;;;;;;7.47;2.62;;;;;;;;;;143746;618;47020;-78
2021/12/09 12:13:00;;;;;;;6.15;2.60;;;;;;;;;;143753;594;46020;-78
2021/12/09 12:15:52;;;;;;;16.05;2.58;;;;;;;;;;143747;581;46018;-79
2021/12/09 12:18:45;;;;;;;8.45;1.70;;;;;;;;;;143747;566;47022;-78
2021/12/09 12:22:01;;;;;;;7.82;2.80;;;;;;;;;;143744;668;46012;-79
2021/12/09 12:25:05;;;;;;;4.95;2.45;;;;;;;;;;143745;590;46020;-79
2021/12/09 12:31:20;;;;;;;6.50;2.70;;;;;;;;;;143749;570;46022;-78
2021/12/09 12:40:03;;;;;;;10.57;2.62;;;;;;;;;;143751;575;45020;-78
2021/12/09 12:42:54;;;;;;;13.85;2.75;;;;;;;;;;143744;587;47023;-78
2021/12/09 12:45:56;;;;;;;7.10;2.12;;;;;;;;;;143745;596;46020;-78
2021/12/09 12:49:03;;;;;;;5.22;2.12;;;;;;;;;;143747;593;47020;-78
2021/12/09 12:51:36;;;;;;;5.20;2.10;;;;;;;;;;143746;586;46020;-78
2021/12/09 12:55:10;;;;;;;9.50;3.03;;;;;;;;;;143737;585;47022;-78
2021/12/09 12:57:42;;;;;;;7.62;2.60;;;;;;;;;;143745;579;46047;-79
2021/12/09 13:00:26;;;;;;;10.95;3.42;;;;;;;;;;143743;570;47020;-79
2021/12/09 13:12:00;;;;;;;9.65;3.20;;;;;;;;;;143741;579;46039;-80
2021/12/09 13:14:32;;;;;;;12.18;3.58;;;;;;;;;;143743;594;46018;-77
2021/12/09 13:17:17;;;;;;;13.02;5.20;;;;;;;;;;143738;582;47021;-77
2021/12/09 13:20:04;;;;;;;10.80;5.18;;;;;;;;;;143738;605;46020;-77
2021/12/09 13:22:38;;;;;;;10.45;3.28;;;;;;;;;;143740;591;46020;-79
2021/12/09 13:25:17;;;;;;;7.47;3.08;;;;;;;;;;143739;572;46013;-79
2021/12/09 13:27:58;;;;;;;7.75;3.90;;;;;;;;;;143743;688;47020;-78
2021/12/09 13:30:50;;;;;;;12.23;3.30;;;;;;;;;;143735;610;46917;-79
2021/12/09 13:39:52;;;;;;;16.67;5.43;;;;;;;;;;143742;569;46014;-79
2021/12/09 13:47:53;;;;;;;6.47;2.80;;;;;;;;;;143746;645;46021;-79
2021/12/09 13:56:18;;;;;;;15.90;3.67;;;;;;;;;;143745;593;47021;-78
2021/12/09 13:58:54;;;;;;;16.58;3.70;;;;;;;;;;143742;566;47018;-78
2021/12/09 14:01:22;;;;;;;11.30;2.95;;;;;;;;;;143739;563;47022;-79
2021/12/09 14:03:57;;;;;;;11.50;2.75;;;;;;;;;;143737;609;47012;-79
2021/12/09 14:06:23;;;;;;;17.17;2.70;;;;;;;;;;143739;569;47014;-79
2021/12/09 14:08:56;;;;;;;9.65;2.67;;;;;;;;;;143741;563;46020;-78
2021/12/09 14:11:47;;;;;;;7.72;2.40;;;;;;;;;;143745;575;47021;-78
2021/12/09 14:14:23;;;;;;;7.00;2.90;;;;;;;;;;143745;704;46020;-80
2021/12/09 14:17:00;;;;;;;7.07;2.72;;;;;;;;;;143742;582;47020;-78
2021/12/09 14:22:42;;;;;;;8.73;3.08;;;;;;;;;;143742;589;46020;-78
2021/12/09 14:25:23;;;;;;;10.68;3.58;;;;;;;;;;143741;569;46013;-77
2021/12/09 14:27:52;;;;;;;7.68;3.10;;;;;;;;;;143740;569;47020;-78
2021/12/09 14:30:27;;;;;;;12.10;4.18;;;;;;;;;;143745;569;46012;-77
2021/12/09 14:32:56;;;;;;;18.90;4.30;;;;;;;;;;143740;564;47022;-77
2021/12/09 14:35:33;;;;;;;8.80;3.70;;;;;;;;;;143738;582;46012;-78
2021/12/09 14:38:02;;;;;;;10.45;3.67;;;;;;;;;;143743;582;47020;-79
2021/12/09 14:40:53;;;;;;;8.52;3.75;;;;;;;;;;143742;575;46012;-77
2021/12/09 14:43:24;;;;;;;8.75;3.58;;;;;;;;;;143740;655;46022;-78
2021/12/09 14:46:10;;;;;;;11.18;3.08;;;;;;;;;;143745;662;46012;-79
2021/12/09 14:48:43;;;;;;;13.52;3.80;;;;;;;;;;143742;632;47020;-79
2021/12/09 14:51:28;;;;;;;11.05;3.80;;;;;;;;;;143752;574;45020;-79
2021/12/09 14:54:07;;;;;;;14.05;4.70;;;;;;;;;;143752;587;47021;-78
2021/12/09 14:56:52;;;;;;;13.25;4.68;;;;;;;;;;143754;645;45918;-78
2021/12/09 14:59:33;;;;;;;17.85;6.18;;;;;;;;;;143755;565;47020;-79
2021/12/09 15:02:27;;;;;;;12.30;6.40;;;;;;;;;;143757;573;45021;-80
2021/12/09 15:05:12;;;;;;;;;;;;;;;;;;143761;981;46020;-79
2021/12/09 15:07:59;;;;;;;17.40;6.57;;;;;;;;;;143756;616;45930;-78
2021/12/09 15:10:30;;;;;;;11.80;5.28;;;;;;;;;;143753;583;47021;-78
2021/12/09 15:12:59;;;;;;;12.02;5.28;;;;;;;;;;143759;611;46018;-79
2021/12/09 15:15:32;;;;;;;14.05;5.97;;;;;;;;;;143756;690;46022;-79
2021/12/09 15:18:04;;;;;;;16.25;5.50;;;;;;;;;;143753;579;45918;-78
2021/12/09 15:20:41;;;;;;;12.95;4.50;;;;;;;;;;143755;589;46020;-79
2021/12/09 15:23:44;;;;;;;11.73;4.60;;;;;;;;;;143758;596;45020;-80
2021/12/09 15:26:39;;;;;;;12.00;4.03;;;;;;;;;;143756;569;47023;-78
2021/12/09 15:29:21;;;;;;;14.68;4.53;;;;;;;;;;143755;621;45915;-80
2021/12/09 15:32:08;;;;;;;11.12;4.80;;;;;;;;;;143756;566;46021;-79
2021/12/09 15:34:42;;;;;;;9.90;4.22;;;;;;;;;;143759;672;45021;-79
2021/12/09 15:37:14;;;;;;;13.50;5.85;;;;;;;;;;143751;620;47022;-79
2021/12/09 15:39:46;;;;;;;13.02;4.78;;;;;;;;;;143754;584;45916;-78
2021/12/09 15:42:25;;;;;;;10.85;4.82;;;;;;;;;;143757;570;46020;-79
2021/12/09 15:44:56;;;;;;;12.55;5.00;;;;;;;;;;143757;665;47020;-79
2021/12/09 15:47:32;;;;;;;11.05;5.80;;;;;;;;;;143755;605;45022;-79
2021/12/09 15:50:04;;;;;;;13.13;6.55;;;;;;;;;;143745;736;46010;-78
2021/12/09 15:52:56;;;;;;;11.43;6.00;;;;;;;;;;143742;585;47020;-79
2021/12/09 15:55:33;;;;;;;16.40;5.45;;;;;;;;;;143741;572;46010;-78